Time;durP1;ratioP1;P1;durP2;ratioP2;P2;SDS_P1;SDS_P2;PMS_P1;PMS_P2;Temp;Humidity;BMP_temperature;BMP_pressure;BME280_temperature;BME280_humidity;BME280_pressure;Samples;Min_cycle;Max_cycle;Signal;HPM_P1;HPM_P2
2022/06/05 00:01:45;;;;;;;20.30;9.95;;;13.70;97.10;;;;;;5113804;28;20024;-45
2022/06/05 00:04:34;;;;;;;17.75;9.75;;;13.70;97.20;;;;;;5113690;28;20042;-45
2022/06/05 00:07:17;;;;;;;;;;;13.70;97.50;;;;;;5114093;28;20016;-54
2022/06/05 00:09:56;;;;;;;21.80;9.98;;;13.60;97.50;;;;;;5113656;28;19947;-56
2022/06/05 00:12:43;;;;;;;22.55;9.90;;;13.60;97.50;;;;;;5109134;28;20046;-61
2022/06/05 00:15:10;;;;;;;19.20;10.20;;;13.70;97.80;;;;;;5106836;28;20031;-58
2022/06/05 00:17:36;;;;;;;18.25;9.93;;;13.70;97.70;;;;;;5102172;28;20020;-60
2022/06/05 00:20:05;;;;;;;19.48;10.40;;;13.70;97.90;;;;;;5113343;28;20097;-58
2022/06/05 00:22:31;;;;;;;;;;;13.70;97.80;;;;;;5113781;28;20022;-49
2022/06/05 00:24:56;;;;;;;16.25;9.45;;;13.70;97.80;;;;;;5113433;28;19998;-48
2022/06/05 00:27:49;;;;;;;18.33;9.77;;;13.70;98.00;;;;;;5113024;28;20091;-55
2022/06/05 00:30:21;;;;;;;17.70;8.82;;;13.70;98.10;;;;;;5113056;28;20035;-51
2022/06/05 00:33:15;;;;;;;15.75;8.95;;;13.70;98.00;;;;;;5113018;28;20025;-58
2022/06/05 00:36:24;;;;;;;15.55;8.85;;;13.70;97.80;;;;;;5104030;28;20387;-57
2022/06/05 00:39:08;;;;;;;15.13;8.40;;;13.70;97.90;;;;;;5112980;28;20480;-57
2022/06/05 00:41:59;;;;;;;15.50;8.98;;;13.70;98.00;;;;;;5112833;28;20030;-42
2022/06/05 00:44:33;;;;;;;17.88;8.80;;;13.70;98.10;;;;;;5112996;28;20030;-57
2022/06/05 00:46:59;;;;;;;16.60;8.48;;;13.70;98.10;;;;;;5107852;28;20084;-51
2022/06/05 00:49:34;;;;;;;21.40;8.70;;;13.70;98.20;;;;;;5112966;28;20016;-57
2022/06/05 00:52:00;;;;;;;14.13;8.35;;;13.70;98.00;;;;;;5112755;28;20032;-43
2022/06/05 00:54:26;;;;;;;15.30;8.02;;;13.70;98.10;;;;;;5112889;28;20096;-55
2022/06/05 00:56:52;;;;;;;15.55;8.90;;;13.70;98.10;;;;;;5112366;28;20450;-41
2022/06/05 00:59:20;;;;;;;16.15;8.68;;;13.60;98.10;;;;;;5112114;28;20395;-41
2022/06/05 01:01:48;;;;;;;18.30;9.00;;;13.70;98.30;;;;;;5112668;28;20059;-41
2022/06/05 01:04:15;;;;;;;15.30;8.20;;;13.70;98.30;;;;;;5112658;28;20028;-41
2022/06/05 01:06:41;;;;;;;14.77;8.57;;;13.70;98.40;;;;;;5112382;28;20111;-41
2022/06/05 01:09:06;;;;;;;13.35;8.13;;;13.70;98.10;;;;;;5112574;28;20122;-41
2022/06/05 01:11:52;;;;;;;12.70;7.88;;;13.70;98.10;;;;;;5105719;28;20073;-42
2022/06/05 01:14:39;;;;;;;15.45;7.88;;;13.70;98.20;;;;;;5107251;28;20568;-40
2022/06/05 01:17:17;;;;;;;12.25;8.00;;;13.70;98.50;;;;;;5097594;28;20059;-45
2022/06/05 01:20:09;;;;;;;12.70;7.78;;;13.80;98.50;;;;;;5101458;28;20039;-41
2022/06/05 01:22:47;;;;;;;13.15;8.02;;;13.80;98.50;;;;;;5083316;28;20031;-44
2022/06/05 01:25:34;;;;;;;13.77;8.57;;;13.80;98.40;;;;;;5097851;28;20019;-52
2022/06/05 01:28:14;;;;;;;12.40;8.38;;;13.80;98.40;;;;;;5112249;28;20480;-49
2022/06/05 01:30:58;;;;;;;14.02;8.05;;;13.80;98.40;;;;;;5095756;28;20063;-45
2022/06/05 01:33:26;;;;;;;16.48;9.30;;;13.80;98.40;;;;;;5097489;28;20031;-59
2022/06/05 01:36:13;;;;;;;12.80;8.80;;;13.80;98.40;;;;;;5112010;28;20020;-56
2022/06/05 01:38:53;;;;;;;12.25;7.63;;;13.80;98.40;;;;;;5111716;28;20032;-58
2022/06/05 01:41:26;;;;;;;94.38;57.70;;;13.80;98.40;;;;;;5112122;28;20027;-60
2022/06/05 01:43:55;;;;;;;16.02;8.32;;;13.80;98.30;;;;;;5088242;28;20073;-57
2022/06/05 01:46:33;;;;;;;17.02;10.05;;;13.90;98.10;;;;;;5111692;28;20078;-48
2022/06/05 01:49:23;;;;;;;16.98;9.05;;;13.90;98.20;;;;;;5107943;28;20042;-59
2022/06/05 01:51:59;;;;;;;15.20;9.27;;;13.80;98.20;;;;;;5102642;28;20031;-58
2022/06/05 01:54:33;;;;;;;14.88;9.00;;;13.90;98.20;;;;;;5097760;28;20106;-46
2022/06/05 01:57:03;;;;;;;18.13;9.38;;;13.70;98.30;;;;;;5107840;28;20047;-57
2022/06/05 01:59:43;;;;;;;;;;;13.80;98.30;;;;;;5097570;28;20459;-48
2022/06/05 02:02:13;;;;;;;16.83;10.23;;;13.80;98.60;;;;;;5106741;28;19908;-52
2022/06/05 02:04:43;;;;;;;15.88;10.18;;;13.80;98.20;;;;;;5105552;28;20039;-59
2022/06/05 02:07:33;;;;;;;20.95;10.93;;;13.80;98.40;;;;;;5099935;28;20028;-52
2022/06/05 02:10:13;;;;;;;18.92;11.07;;;13.80;98.40;;;;;;5098795;28;20136;-60
2022/06/05 02:12:39;;;;;;;15.63;10.23;;;13.80;98.30;;;;;;5104580;28;20265;-58
2022/06/05 02:15:06;;;;;;;19.83;11.90;;;13.80;98.30;;;;;;5111616;28;20063;-54
2022/06/05 02:17:32;;;;;;;16.98;11.32;;;13.80;98.50;;;;;;5103674;28;20025;-55
2022/06/05 02:19:59;;;;;;;21.38;11.45;;;13.80;98.60;;;;;;5111244;28;20126;-59
2022/06/05 02:22:35;;;;;;;21.42;12.32;;;13.80;98.70;;;;;;5111138;28;20024;-60
2022/06/05 02:25:01;;;;;;;25.60;12.50;;;13.80;98.60;;;;;;5096285;28;20046;-58
2022/06/05 02:27:28;;;;;;;21.95;11.98;;;13.80;98.80;;;;;;5103652;28;20393;-56
2022/06/05 02:29:55;;;;;;;18.23;12.05;;;13.90;98.80;;;;;;5108686;28;20024;-56
2022/06/05 02:32:24;;;;;;;24.15;14.88;;;13.90;98.70;;;;;;5104812;28;20035;-58
2022/06/05 02:35:20;;;;;;;25.67;14.30;;;13.90;98.90;;;;;;5107174;28;20039;-51
2022/06/05 02:37:46;;;;;;;26.25;14.45;;;13.90;98.90;;;;;;5100678;28;20024;-59
2022/06/05 02:40:36;;;;;;;22.73;13.48;;;13.90;98.70;;;;;;5090912;28;20038;-54
2022/06/05 02:43:19;;;;;;;28.63;14.75;;;13.90;98.80;;;;;;5098779;28;20496;-56
2022/06/05 02:46:13;;;;;;;27.77;15.57;;;13.90;98.70;;;;;;5099415;28;20027;-54
2022/06/05 02:48:44;;;;;;;24.40;14.30;;;13.90;98.80;;;;;;5097358;28;20023;-60
2022/06/05 02:51:33;;;;;;;29.58;14.52;;;13.90;98.80;;;;;;5111185;28;20020;-49
2022/06/05 02:53:59;;;;;;;31.65;15.13;;;13.90;98.90;;;;;;5096340;28;20031;-54
2022/06/05 02:56:28;;;;;;;33.30;15.25;;;13.90;98.90;;;;;;5110791;28;20418;-57
2022/06/05 02:58:56;;;;;;;30.88;16.40;;;13.90;98.80;;;;;;5091343;28;20031;-42
2022/06/05 03:04:07;;;;;;;35.45;17.52;;;13.90;98.80;;;;;;5110025;28;20038;-53
2022/06/05 03:06:33;;;;;;;32.70;16.90;;;13.90;98.90;;;;;;5110912;28;20072;-62
2022/06/05 03:08:59;;;;;;;32.30;16.65;;;13.90;98.90;;;;;;5094906;28;20111;-60
2022/06/05 03:11:25;;;;;;;35.95;16.63;;;13.90;98.90;;;;;;5110778;28;20050;-56
2022/06/05 03:13:51;;;;;;;35.58;17.55;;;13.80;98.90;;;;;;5109810;28;20464;-57
2022/06/05 03:16:17;;;;;;;30.42;17.02;;;13.90;99.00;;;;;;5110742;28;20064;-60
2022/06/05 03:18:43;;;;;;;36.67;17.38;;;13.90;98.90;;;;;;5105515;28;20034;-47
2022/06/05 03:21:08;;;;;;;39.17;17.73;;;13.90;99.30;;;;;;5111427;28;20023;-46
2022/06/05 03:23:34;;;;;;;31.60;17.52;;;13.90;98.80;;;;;;5101009;28;20020;-58
2022/06/05 03:26:01;;;;;;;35.22;17.58;;;13.90;99.10;;;;;;5107817;28;20034;-49
2022/06/05 03:28:27;;;;;;;36.60;17.90;;;13.90;99.10;;;;;;5104332;28;20030;-54
2022/06/05 03:30:52;;;;;;;34.60;18.13;;;13.90;99.20;;;;;;5114462;28;20035;-52
2022/06/05 03:33:19;;;;;;;34.65;18.58;;;13.90;99.10;;;;;;5103439;28;20027;-60
2022/06/05 03:35:46;;;;;;;34.47;18.02;;;13.90;99.00;;;;;;5114508;28;20118;-54
2022/06/05 03:38:13;;;;;;;37.10;18.20;;;13.90;99.10;;;;;;5102037;28;20161;-58
2022/06/05 03:40:41;;;;;;;40.47;19.95;;;13.90;99.20;;;;;;5113916;28;20093;-47
2022/06/05 03:43:07;;;;;;;35.30;18.17;;;13.90;99.30;;;;;;5113029;28;20449;-57
2022/06/05 03:45:32;;;;;;;35.42;18.45;;;13.90;99.20;;;;;;5114177;28;20024;-58
2022/06/05 03:47:58;;;;;;;37.38;18.63;;;13.90;99.20;;;;;;5105141;28;20473;-53
2022/06/05 03:50:24;;;;;;;35.30;18.15;;;13.90;99.20;;;;;;5114183;28;20072;-58
2022/06/05 03:52:50;;;;;;;38.22;18.83;;;13.90;99.20;;;;;;5103373;28;20032;-51
2022/06/05 03:55:18;;;;;;;37.22;18.58;;;13.90;99.10;;;;;;5100756;28;20091;-60
2022/06/05 03:57:44;;;;;;;43.07;20.97;;;13.90;99.20;;;;;;5102248;28;20059;-58
2022/06/05 04:00:11;;;;;;;43.92;18.85;;;13.90;99.30;;;;;;5112536;28;20644;-54
2022/06/05 04:02:37;;;;;;;35.28;18.67;;;13.90;99.60;;;;;;5106729;28;20434;-60
2022/06/05 04:05:04;;;;;;;36.53;18.55;;;14.00;99.50;;;;;;5110470;28;20028;-57
2022/06/05 04:07:30;;;;;;;34.90;18.33;;;14.00;99.50;;;;;;5087805;28;20028;-60
2022/06/05 04:09:56;;;;;;;34.92;18.85;;;14.00;99.30;;;;;;5090618;28;20398;-55
2022/06/05 04:12:22;;;;;;;41.58;18.98;;;14.00;99.40;;;;;;5095968;28;20032;-60
2022/06/05 04:14:47;;;;;;;36.60;18.92;;;13.90;99.20;;;;;;5106798;28;20027;-50
2022/06/05 04:17:13;;;;;;;37.58;18.67;;;14.00;99.30;;;;;;5104749;28;20412;-57
2022/06/05 04:19:39;;;;;;;39.53;19.73;;;13.90;99.20;;;;;;5104600;28;20039;-58
2022/06/05 04:22:04;;;;;;;40.90;19.20;;;14.00;99.40;;;;;;5112419;28;20024;-61
2022/06/05 04:24:30;;;;;;;36.95;19.58;;;13.90;99.20;;;;;;5099120;28;20031;-60
2022/06/05 04:26:56;;;;;;;42.40;19.67;;;13.90;99.10;;;;;;5110461;28;20047;-53
2022/06/05 04:29:22;;;;;;;41.20;20.60;;;13.90;99.30;;;;;;5106344;28;20034;-58
2022/06/05 04:31:49;;;;;;;41.20;20.52;;;13.90;99.30;;;;;;5110598;28;20058;-57
2022/06/05 04:34:17;;;;;;;46.03;19.65;;;13.90;99.20;;;;;;5104032;28;20106;-56
2022/06/05 04:36:44;;;;;;;39.72;20.25;;;13.90;99.40;;;;;;5111863;28;20022;-57
2022/06/05 04:39:10;;;;;;;42.25;19.75;;;13.90;99.50;;;;;;5102509;28;20051;-46
2022/06/05 04:41:36;;;;;;;39.75;20.60;;;13.90;99.40;;;;;;5112603;28;20456;-58
2022/06/05 04:44:03;;;;;;;37.25;19.73;;;13.90;99.60;;;;;;5095234;28;20102;-40
2022/06/05 04:46:29;;;;;;;40.90;19.63;;;13.90;99.50;;;;;;5106541;28;20496;-52
2022/06/05 04:48:55;;;;;;;41.25;20.00;;;14.00;99.70;;;;;;5099525;28;20024;-58
2022/06/05 04:51:22;;;;;;;40.35;20.10;;;14.00;99.50;;;;;;5113064;28;20027;-57
2022/06/05 04:53:49;;;;;;;52.70;20.80;;;13.90;99.50;;;;;;5098170;28;20031;-59
2022/06/05 04:56:22;;;;;;;41.47;19.98;;;14.00;99.50;;;;;;5112761;28;20039;-61
2022/06/05 04:58:49;;;;;;;38.58;19.63;;;14.00;99.50;;;;;;5111567;28;20023;-57
2022/06/05 05:01:18;;;;;;;36.28;19.00;;;14.10;99.60;;;;;;5112915;28;20027;-57
2022/06/05 05:03:45;;;;;;;40.85;20.05;;;14.10;99.60;;;;;;5110295;28;20028;-59
2022/06/05 05:06:11;;;;;;;44.00;20.02;;;14.10;99.70;;;;;;5112741;28;20032;-59
2022/06/05 05:08:37;;;;;;;39.28;19.67;;;14.10;99.60;;;;;;5109481;28;20039;-53
2022/06/05 05:11:04;;;;;;;37.20;18.52;;;14.10;99.60;;;;;;5112534;28;20019;-52
2022/06/05 05:13:30;;;;;;;41.28;19.50;;;14.10;99.50;;;;;;5111431;28;20023;-44
2022/06/05 05:15:56;;;;;;;40.08;19.95;;;14.10;99.40;;;;;;5093708;28;20019;-59
2022/06/05 05:18:22;;;;;;;41.08;19.42;;;14.10;99.40;;;;;;5110506;28;20444;-50
2022/06/05 05:20:48;;;;;;;41.13;20.55;;;14.10;99.50;;;;;;5112124;28;20032;-58
2022/06/05 05:23:14;;;;;;;47.08;20.90;;;14.20;99.40;;;;;;5102098;28;20103;-55
2022/06/05 05:25:40;;;;;;;34.33;18.30;;;14.20;99.40;;;;;;5109514;28;20063;-57
2022/06/05 05:28:06;;;;;;;45.08;20.17;;;14.20;99.70;;;;;;5108641;28;20027;-54
2022/06/05 05:30:33;;;;;;;45.58;20.33;;;14.20;99.20;;;;;;5112100;28;20107;-57
2022/06/05 05:32:59;;;;;;;44.25;20.30;;;14.20;99.50;;;;;;5103387;28;20494;-59
2022/06/05 05:35:25;;;;;;;43.78;20.23;;;14.20;99.50;;;;;;5112143;28;20082;-57
2022/06/05 05:37:50;;;;;;;37.63;20.60;;;14.20;99.50;;;;;;5111336;28;20144;-59
2022/06/05 05:43:00;;;;;;;47.70;20.92;;;14.30;99.40;;;;;;5100116;28;20031;-59
2022/06/05 05:45:26;;;;;;;47.97;20.88;;;14.30;99.40;;;;;;5111739;28;20024;-50
2022/06/05 05:47:52;;;;;;;47.47;21.13;;;14.30;99.40;;;;;;5107533;28;20035;-57
2022/06/05 05:50:18;;;;;;;56.38;22.38;;;14.40;99.50;;;;;;5091416;28;20028;-47
2022/06/05 05:52:45;;;;;;;40.40;19.85;;;14.40;99.50;;;;;;5091386;28;20107;-58
2022/06/05 05:55:15;;;;;;;40.85;20.98;;;14.40;99.30;;;;;;5091112;28;20023;-53
2022/06/05 05:57:41;;;;;;;45.72;21.77;;;14.40;99.00;;;;;;5091023;28;20079;-59
2022/06/05 06:00:10;;;;;;;40.25;19.95;;;14.50;99.20;;;;;;5091109;28;20081;-59
2022/06/05 06:02:36;;;;;;;52.50;20.80;;;14.50;99.20;;;;;;5093292;28;20049;-56
2022/06/05 06:05:03;;;;;;;48.08;21.02;;;14.50;99.00;;;;;;5091084;28;20260;-60
2022/06/05 06:07:29;;;;;;;44.13;20.85;;;14.50;98.70;;;;;;5100101;28;20102;-60
2022/06/05 06:09:55;;;;;;;45.53;21.17;;;14.50;99.00;;;;;;5090932;28;20114;-55
2022/06/05 06:12:21;;;;;;;50.90;21.77;;;14.50;99.00;;;;;;5091089;28;20062;-60
2022/06/05 06:14:46;;;;;;;47.97;21.85;;;14.60;99.10;;;;;;5098864;28;20523;-40
2022/06/05 06:17:12;;;;;;;50.35;22.52;;;14.60;99.10;;;;;;5090951;28;20389;-59
2022/06/05 06:19:38;;;;;;;47.88;20.73;;;14.60;98.90;;;;;;5090461;28;20035;-54
2022/06/05 06:22:04;;;;;;;43.67;21.60;;;14.60;99.10;;;;;;5090629;28;20168;-57
2022/06/05 06:24:30;;;;;;;50.03;21.75;;;14.60;98.90;;;;;;5091770;28;20039;-54
2022/06/05 06:26:56;;;;;;;45.72;21.08;;;14.60;98.80;;;;;;5111315;28;20039;-60
2022/06/05 06:29:22;;;;;;;50.80;22.40;;;14.60;98.80;;;;;;5111492;28;20032;-58
2022/06/05 06:31:47;;;;;;;48.83;22.20;;;14.60;98.60;;;;;;5081107;28;20102;-57
2022/06/05 06:34:13;;;;;;;42.13;22.27;;;14.70;98.80;;;;;;5092181;28;20469;-56
2022/06/05 06:36:39;;;;;;;45.65;22.05;;;14.70;99.10;;;;;;5090576;28;20912;-62
2022/06/05 06:39:05;;;;;;;53.85;21.85;;;14.80;99.10;;;;;;5090513;28;20039;-55
2022/06/05 06:41:31;;;;;;;44.45;20.98;;;14.80;98.60;;;;;;5090571;28;20090;-58
2022/06/05 06:43:57;;;;;;;49.53;22.58;;;14.90;99.00;;;;;;5072640;28;20028;-53
2022/06/05 06:46:23;;;;;;;42.78;21.85;;;14.90;99.10;;;;;;5090597;28;20055;-57
2022/06/05 06:48:49;;;;;;;37.85;20.05;;;14.90;98.60;;;;;;5090541;28;20104;-55
2022/06/05 06:51:15;;;;;;;41.58;21.38;;;14.90;98.40;;;;;;5090650;28;20070;-59
2022/06/05 06:53:43;;;;;;;45.90;22.73;;;15.00;98.50;;;;;;5090599;28;20020;-58
2022/06/05 06:56:12;;;;;;;43.83;20.48;;;15.00;98.60;;;;;;5092079;28;20052;-58
2022/06/05 06:58:40;;;;;;;50.58;22.75;;;15.00;98.60;;;;;;5094646;28;20046;-55
2022/06/05 07:01:06;;;;;;;48.00;21.40;;;15.00;98.80;;;;;;5110830;28;20089;-49
2022/06/05 07:03:33;;;;;;;49.58;22.05;;;15.00;98.30;;;;;;5112944;28;20051;-59
2022/06/05 07:06:00;;;;;;;48.95;21.30;;;15.10;98.50;;;;;;5114775;28;20027;-59
2022/06/05 07:08:26;;;;;;;47.08;21.85;;;15.10;98.60;;;;;;5106599;28;20100;-58
2022/06/05 07:10:53;;;;;;;47.30;21.88;;;15.20;98.20;;;;;;5114684;28;20496;-54
2022/06/05 07:13:19;;;;;;;45.22;21.40;;;15.20;98.20;;;;;;5114909;28;20028;-58
2022/06/05 07:15:44;;;;;;;48.08;21.40;;;15.20;98.40;;;;;;5114598;28;20032;-54
2022/06/05 07:18:10;;;;;;;49.08;20.90;;;15.20;98.70;;;;;;5102289;28;20027;-54
2022/06/05 07:20:39;;;;;;;45.05;21.05;;;15.30;98.50;;;;;;5094108;28;20035;-59
2022/06/05 07:23:05;;;;;;;44.20;21.83;;;15.30;97.90;;;;;;5094254;28;20028;-59
2022/06/05 07:25:32;;;;;;;43.42;21.15;;;15.40;98.00;;;;;;5103713;28;20089;-57
2022/06/05 07:27:58;;;;;;;47.10;21.00;;;15.40;98.20;;;;;;5106000;28;20027;-56
2022/06/05 07:30:24;;;;;;;39.88;19.85;;;15.40;97.80;;;;;;5114456;28;20024;-59
2022/06/05 07:32:50;;;;;;;42.40;20.50;;;15.40;98.10;;;;;;5114313;28;20032;-58
2022/06/05 07:35:17;;;;;;;38.83;21.33;;;15.40;97.90;;;;;;5114097;28;20049;-54
2022/06/05 07:37:43;;;;;;;48.85;24.23;;;15.50;98.00;;;;;;5107265;28;20019;-57
2022/06/05 07:40:09;;;;;;;47.40;23.10;;;15.50;97.80;;;;;;5109588;28;20441;-45
2022/06/05 07:42:36;;;;;;;46.78;23.48;;;15.50;98.10;;;;;;5093812;28;20028;-58
2022/06/05 07:45:04;;;;;;;44.45;20.13;;;15.50;98.00;;;;;;5095563;28;20031;-56
2022/06/05 07:47:29;;;;;;;44.53;20.95;;;15.50;97.30;;;;;;5093533;28;20058;-57
2022/06/05 07:49:55;;;;;;;48.53;20.30;;;15.50;97.50;;;;;;5100719;28;20069;-58
2022/06/05 07:55:05;;;;;;;36.40;18.48;;;15.50;97.90;;;;;;5094938;28;20035;-55
2022/06/05 07:57:31;;;;;;;43.83;20.55;;;15.60;97.90;;;;;;5093949;28;20048;-59
2022/06/05 07:59:57;;;;;;;41.28;20.67;;;15.60;97.80;;;;;;5093780;28;20053;-46
2022/06/05 08:02:27;;;;;;;41.33;20.63;;;15.60;97.40;;;;;;5099470;28;20020;-60
2022/06/05 08:04:54;;;;;;;35.17;19.17;;;15.60;97.10;;;;;;5093271;28;20016;-54
2022/06/05 08:07:25;;;;;;;43.25;20.15;;;15.60;97.30;;;;;;5100249;28;20024;-55
2022/06/05 08:09:52;;;;;;;40.17;18.85;;;15.60;97.20;;;;;;5095583;28;20016;-53
2022/06/05 08:12:20;;;;;;;42.70;21.35;;;15.70;97.50;;;;;;5094410;28;20465;-59
2022/06/05 08:14:48;;;;;;;33.47;19.13;;;15.70;97.20;;;;;;5092856;28;20099;-59
2022/06/05 08:17:17;;;;;;;45.75;21.60;;;15.70;97.40;;;;;;5082147;28;20031;-57
2022/06/05 08:19:44;;;;;;;44.50;20.07;;;15.70;97.00;;;;;;5092740;28;20437;-50
2022/06/05 08:22:12;;;;;;;41.58;19.58;;;15.70;97.00;;;;;;5076042;28;20638;-57
2022/06/05 08:24:39;;;;;;;35.72;20.10;;;15.70;97.00;;;;;;5093295;28;20024;-56
2022/06/05 08:27:06;;;;;;;39.70;20.17;;;15.70;97.30;;;;;;5095325;28;20024;-56
2022/06/05 08:29:32;;;;;;;51.50;20.30;;;15.70;97.40;;;;;;5092393;28;20031;-52
2022/06/05 08:31:57;;;;;;;47.85;19.67;;;15.70;97.10;;;;;;5092973;28;20032;-56
2022/06/05 08:34:23;;;;;;;38.85;18.92;;;15.70;97.00;;;;;;5092890;28;20435;-42
2022/06/05 08:41:26;;;;;;;36.47;18.60;;;15.70;96.70;;;;;;5092760;28;20016;-39
2022/06/05 08:42:45;;;;;;;46.15;20.48;;;15.60;96.80;;;;;;5093790;28;20370;-50
2022/06/05 08:45:28;;;;;;;40.15;19.30;;;15.60;96.90;;;;;;5096416;28;20370;-43
2022/06/05 08:47:57;;;;;;;40.90;19.75;;;15.60;97.00;;;;;;5092516;28;20080;-44
2022/06/05 08:50:39;;;;;;;36.45;18.80;;;15.50;97.40;;;;;;5094950;28;20024;-43
2022/06/05 08:53:12;;;;;;;35.15;18.27;;;15.60;97.20;;;;;;5078201;28;20370;-49
2022/06/05 08:55:41;;;;;;;39.00;20.25;;;15.60;97.50;;;;;;5091230;28;20104;-42
2022/06/05 08:58:10;;;;;;;;;;;15.50;97.30;;;;;;5094198;28;20097;-47
2022/06/05 09:00:44;;;;;;;41.63;20.80;;;15.60;97.40;;;;;;5092014;28;19916;-50
2022/06/05 09:03:42;;;;;;;39.70;19.02;;;15.60;97.00;;;;;;5093630;28;20437;-49
2022/06/05 09:06:14;;;;;;;48.80;21.25;;;15.70;97.00;;;;;;5100043;28;20030;-53
2022/06/05 09:08:43;;;;;;;41.67;20.90;;;15.70;97.70;;;;;;5076144;28;20408;-59
2022/06/05 09:11:23;;;;;;;37.45;19.92;;;15.70;97.20;;;;;;5092069;28;20038;-52
2022/06/05 09:13:57;;;;;;;43.58;20.40;;;15.70;97.20;;;;;;5095323;28;20019;-60
2022/06/05 09:16:29;;;;;;;37.42;19.17;;;15.80;97.50;;;;;;5091962;28;20020;-60
2022/06/05 09:18:56;;;;;;;41.92;19.95;;;15.80;97.10;;;;;;5098728;28;20484;-51
2022/06/05 09:21:38;;;;;;;34.90;17.83;;;16.00;96.90;;;;;;5109556;28;20015;-51
2022/06/05 09:24:13;;;;;;;38.08;20.00;;;16.10;96.70;;;;;;5099087;28;20023;-58
2022/06/05 09:26:50;;;;;;;38.47;19.15;;;16.20;96.40;;;;;;5092883;28;20161;-54
2022/06/05 09:29:43;;;;;;;34.55;18.63;;;16.40;95.80;;;;;;5092446;28;20473;-56
2022/06/05 09:32:17;;;;;;;42.30;21.20;;;16.40;95.40;;;;;;5091532;28;20024;-54
2022/06/05 09:34:55;;;;;;;36.03;19.25;;;16.50;96.30;;;;;;5094963;28;20429;-49
2022/06/05 09:37:34;;;;;;;29.87;18.83;;;16.60;95.10;;;;;;5094816;28;20020;-60
2022/06/05 09:40:02;;;;;;;38.20;19.42;;;16.60;95.00;;;;;;5095637;28;20028;-56
2022/06/05 09:42:44;;;;;;;39.15;20.30;;;16.70;94.40;;;;;;5107197;28;20020;-58
2022/06/05 09:45:36;;;;;;;34.60;18.80;;;16.80;95.80;;;;;;5104460;28;20046;-55
2022/06/05 09:48:18;;;;;;;35.78;19.02;;;16.90;95.40;;;;;;5067783;28;20036;-55
2022/06/05 09:50:44;;;;;;;35.80;19.23;;;16.90;95.00;;;;;;5102760;28;20054;-58
2022/06/05 09:53:18;;;;;;;36.25;19.08;;;17.00;95.00;;;;;;5102745;28;20047;-53
2022/06/05 09:56:14;;;;;;;33.67;18.65;;;16.90;94.10;;;;;;5104420;28;20054;-56
2022/06/05 09:58:40;;;;;;;35.17;19.45;;;16.70;93.70;;;;;;5106593;28;20065;-44
2022/06/05 10:01:29;;;;;;;32.03;19.73;;;16.70;94.20;;;;;;5111252;28;20287;-51
2022/06/05 10:03:57;;;;;;;39.17;20.55;;;16.60;95.00;;;;;;5099559;28;20039;-58
2022/06/05 10:06:38;;;;;;;36.10;20.70;;;16.60;94.60;;;;;;5109083;28;20024;-55
2022/06/05 10:09:12;;;;;;;34.70;18.77;;;16.60;95.80;;;;;;5101572;28;20089;-54
2022/06/05 10:12:03;;;;;;;36.95;19.58;;;16.50;94.50;;;;;;5102770;28;20035;-51
2022/06/05 10:14:44;;;;;;;36.95;20.13;;;16.50;95.40;;;;;;5098606;28;20023;-58
2022/06/05 10:17:31;;;;;;;37.25;20.02;;;16.60;95.10;;;;;;5101753;28;20484;-52
2022/06/05 10:20:27;;;;;;;37.00;20.15;;;16.50;95.40;;;;;;5103122;28;20504;-58
2022/06/05 10:23:24;;;;;;;36.65;20.33;;;16.60;95.60;;;;;;5101498;28;20029;-52
2022/06/05 10:25:59;;;;;;;37.78;20.58;;;16.60;94.90;;;;;;5103980;28;20059;-54
2022/06/05 10:28:28;;;;;;;39.83;20.27;;;16.60;94.90;;;;;;5106081;28;20472;-55
2022/06/05 10:31:00;;;;;;;;;;;16.50;94.10;;;;;;5105848;28;20073;-43
2022/06/05 10:33:30;;;;;;;36.75;22.08;;;16.50;94.90;;;;;;5111315;28;19935;-49
2022/06/05 10:36:26;;;;;;;33.72;19.08;;;16.70;95.80;;;;;;5105870;28;20103;-54
2022/06/05 10:39:11;;;;;;;36.08;20.48;;;16.80;94.80;;;;;;5095085;28;20489;-53
2022/06/05 10:41:52;;;;;;;34.50;19.58;;;16.90;94.70;;;;;;5094575;28;20137;-57
2022/06/05 10:44:51;;;;;;;33.67;19.92;;;17.00;94.10;;;;;;5096671;28;20052;-55
2022/06/05 10:47:34;;;;;;;33.88;19.48;;;17.10;94.90;;;;;;5095984;28;20583;-55
2022/06/05 10:50:18;;;;;;;33.15;19.52;;;17.10;92.60;;;;;;5100118;28;20472;-57
2022/06/05 10:52:52;;;;;;;33.42;19.73;;;17.10;93.60;;;;;;5096180;28;20172;-55
2022/06/05 10:55:18;;;;;;;38.03;21.15;;;17.10;93.80;;;;;;5093815;28;20070;-55
2022/06/05 10:58:02;;;;;;;32.70;19.00;;;17.10;94.00;;;;;;5094494;28;20507;-52
2022/06/05 11:00:50;;;;;;;33.63;20.33;;;17.10;94.40;;;;;;5094324;28;20028;-58
2022/06/05 11:03:45;;;;;;;31.50;20.33;;;17.10;94.60;;;;;;5084968;28;20052;-57
2022/06/05 11:06:41;;;;;;;34.65;18.92;;;17.30;93.00;;;;;;5103247;28;20264;-60
2022/06/05 11:09:29;;;;;;;36.85;20.92;;;17.30;93.50;;;;;;5093492;28;20031;-49
2022/06/05 11:15:05;;;;;;;36.25;19.73;;;17.50;93.60;;;;;;5091150;28;20113;-59
2022/06/05 11:18:11;;;;;;;34.47;19.40;;;17.50;93.60;;;;;;5091093;28;20058;-55
2022/06/05 11:20:41;;;;;;;30.90;18.67;;;17.60;92.70;;;;;;5090903;28;20132;-58
2022/06/05 11:23:13;;;;;;;30.33;18.02;;;17.40;92.70;;;;;;5090243;28;20051;-55
2022/06/05 11:26:05;;;;;;;27.75;19.25;;;17.40;92.30;;;;;;5102606;28;20032;-53
2022/06/05 11:28:48;;;;;;;29.75;19.10;;;17.40;92.60;;;;;;5100255;28;20518;-56
2022/06/05 11:31:20;;;;;;;34.75;19.05;;;17.30;92.60;;;;;;5114265;28;20457;-55
2022/06/05 11:34:15;;;;;;;34.38;18.38;;;17.30;92.40;;;;;;5114459;28;20020;-54
2022/06/05 11:36:51;;;;;;;34.53;19.60;;;17.20;92.70;;;;;;5104379;28;20043;-55
2022/06/05 11:39:30;;;;;;;31.13;19.02;;;17.30;92.50;;;;;;5104807;28;20039;-58
2022/06/05 11:42:16;;;;;;;31.27;19.02;;;17.20;93.10;;;;;;5113326;28;20024;-58
2022/06/05 11:44:41;;;;;;;31.80;20.02;;;17.30;93.50;;;;;;5114180;28;20136;-58
2022/06/05 11:47:10;;;;;;;35.00;18.98;;;17.30;93.10;;;;;;5109862;28;20430;-54
2022/06/05 11:49:48;;;;;;;34.55;19.33;;;17.30;93.30;;;;;;5105230;28;20027;-55
2022/06/05 11:52:18;;;;;;;30.65;19.02;;;17.30;93.60;;;;;;5108311;28;20063;-55
2022/06/05 11:55:15;;;;;;;29.48;17.40;;;17.30;93.40;;;;;;5105207;28;20031;-51
2022/06/05 11:57:55;;;;;;;29.55;18.95;;;17.30;93.70;;;;;;5102144;28;20051;-59
2022/06/05 12:00:28;;;;;;;32.85;18.98;;;17.30;93.10;;;;;;5113705;28;20035;-56
2022/06/05 12:03:13;;;;;;;28.70;18.98;;;17.20;93.10;;;;;;5112425;28;20027;-53
2022/06/05 12:06:21;;;;;;;27.17;18.40;;;17.20;93.30;;;;;;5113771;28;20030;-60
2022/06/05 12:09:00;;;;;;;31.02;19.92;;;17.30;93.30;;;;;;5097970;28;20123;-55
2022/06/05 12:11:34;;;;;;;30.92;19.08;;;17.40;93.10;;;;;;5113734;28;20412;-59
2022/06/05 12:14:27;;;;;;;34.50;20.45;;;17.50;93.60;;;;;;5110132;28;20480;-56
2022/06/05 12:17:22;;;;;;;32.90;19.52;;;17.70;93.60;;;;;;5110894;28;20032;-59
2022/06/05 12:19:56;;;;;;;33.40;19.13;;;17.60;93.40;;;;;;5101377;28;20039;-58
2022/06/05 12:22:47;;;;;;;34.72;20.35;;;17.70;92.60;;;;;;5107965;28;20544;-56
2022/06/05 12:25:12;;;;;;;29.58;19.80;;;17.70;93.10;;;;;;5113329;28;20437;-54
2022/06/05 12:28:03;;;;;;;36.28;21.35;;;17.80;93.80;;;;;;5104362;28;20024;-61
2022/06/05 12:30:36;;;;;;;29.27;19.42;;;17.90;93.40;;;;;;5101498;28;20122;-54
2022/06/05 12:33:25;;;;;;;36.97;20.75;;;18.10;93.30;;;;;;5101849;28;20028;-57
2022/06/05 12:35:54;;;;;;;32.13;20.35;;;18.20;91.90;;;;;;5113210;28;20035;-51
2022/06/05 12:38:35;;;;;;;33.05;19.95;;;18.20;91.90;;;;;;5101257;28;20028;-59
2022/06/05 12:41:20;;;;;;;31.63;19.73;;;18.20;91.80;;;;;;5113116;28;20092;-59
2022/06/05 12:44:01;;;;;;;31.02;20.10;;;18.20;91.10;;;;;;5100148;28;20015;-53
2022/06/05 12:46:30;;;;;;;27.10;19.52;;;18.40;92.40;;;;;;5112999;28;20036;-60
2022/06/05 12:49:12;;;;;;;;;;;18.60;91.60;;;;;;5099481;28;20026;-52
2022/06/05 12:51:47;;;;;;;34.60;20.95;;;18.70;90.50;;;;;;5112455;28;19984;-58
2022/06/05 12:54:43;;;;;;;32.33;21.17;;;18.80;91.50;;;;;;5099614;28;20541;-56
2022/06/05 12:57:17;;;;;;;33.83;22.05;;;18.70;89.40;;;;;;5111794;28;20131;-51
2022/06/05 12:59:59;;;;;;;31.25;21.45;;;18.60;90.80;;;;;;5112639;28;20416;-55
2022/06/05 13:02:36;;;;;;;31.90;21.85;;;18.50;90.10;;;;;;5110401;28;20058;-57
2022/06/05 13:05:05;;;;;;;32.60;20.92;;;18.30;90.40;;;;;;5112857;28;20034;-57
2022/06/05 13:07:49;;;;;;;32.65;21.60;;;18.40;92.60;;;;;;5109903;28;20019;-59
2022/06/05 13:10:45;;;;;;;32.80;22.13;;;18.20;91.10;;;;;;5112588;28;20030;-55
2022/06/05 13:13:17;;;;;;;31.23;20.85;;;18.20;91.80;;;;;;5105003;28;20024;-55
2022/06/05 13:15:57;;;;;;;32.70;21.33;;;18.10;90.60;;;;;;5112186;28;20024;-55